createdAt,value
2023-05-03T00:02:42.591Z,6.1
2023-05-03T00:08:09.222Z,6.0
2023-05-03T00:12:55.639Z,5.9
2023-05-03T00:18:02.025Z,5.8
2023-05-03T00:23:08.349Z,5.8
2023-05-03T00:28:14.769Z,5.6
2023-05-03T00:33:21.128Z,5.6
2023-05-03T00:38:51.573Z,5.5
2023-05-03T00:43:53.972Z,5.4
2023-05-03T00:49:00.430Z,5.3
2023-05-03T00:53:47.932Z,5.2
2023-05-03T00:58:54.338Z,5.2
2023-05-03T01:04:00.847Z,5.1
2023-05-03T01:09:07.123Z,5.0
2023-05-03T01:14:33.539Z,4.9
2023-05-03T01:19:09.886Z,4.8
2023-05-03T01:24:26.466Z,4.8
2023-05-03T01:29:32.834Z,4.7
2023-05-03T01:34:39.231Z,4.6
2023-05-03T01:39:45.581Z,4.6
2023-05-03T01:45:06.019Z,4.5
2023-05-03T01:50:18.461Z,4.4
2023-05-03T01:55:04.798Z,4.4
2023-05-03T02:01:07.914Z,4.3
2023-05-03T02:10:25.667Z,4.2
2023-05-03T02:15:22.061Z,4.2
2023-05-03T02:20:58.516Z,4.1
2023-05-03T02:25:44.873Z,4.0
2023-05-03T02:35:57.649Z,3.9
2023-05-03T02:41:04.116Z,3.9
2023-05-03T02:46:55.630Z,3.8
2023-05-03T02:51:59.670Z,3.7
2023-05-03T02:57:07.051Z,3.7
2023-05-03T03:01:33.345Z,3.6
2023-05-03T03:07:00.751Z,3.6
2023-05-03T03:12:43.213Z,3.5
2023-05-03T03:16:53.481Z,3.5
2023-05-03T03:21:59.932Z,3.4
2023-05-03T03:27:06.449Z,3.4
2023-05-03T03:32:03.919Z,3.3
2023-05-03T03:37:58.291Z,3.3
2023-05-03T03:42:26.590Z,3.2
2023-05-03T03:53:37.726Z,3.1
2023-05-03T03:57:46.146Z,3.1
2023-05-03T04:02:52.786Z,3.0
2023-05-03T04:07:59.045Z,3.0
2023-05-03T04:13:05.420Z,2.9
2023-05-03T04:18:11.935Z,2.9
2023-05-03T04:23:18.178Z,2.8
2023-05-03T04:28:24.565Z,2.8
2023-05-03T04:33:55.025Z,2.8
2023-05-03T04:38:37.473Z,2.7
2023-05-03T04:43:33.853Z,2.7
2023-05-03T04:48:50.249Z,2.7
2023-05-03T04:53:56.664Z,2.7
2023-05-03T04:59:02.993Z,2.6
2023-05-03T05:04:09.415Z,2.6
2023-05-03T05:14:22.248Z,2.6
2023-05-03T05:29:41.361Z,2.7
2023-05-03T05:34:47.743Z,2.7
2023-05-03T05:39:54.149Z,2.8
2023-05-03T05:45:00.519Z,2.9
2023-05-03T05:50:21.167Z,2.9
2023-05-03T05:55:37.407Z,3.0
2023-05-03T06:01:15.814Z,3.1
2023-05-03T06:05:16.088Z,3.2
2023-05-03T06:10:32.481Z,3.3
2023-05-03T06:15:58.892Z,3.4
2023-05-03T06:20:45.209Z,3.6
2023-05-03T06:25:51.584Z,3.7
2023-05-03T06:30:59.119Z,3.9
2023-05-03T06:35:55.554Z,4.0
2023-05-03T06:41:31.962Z,4.2
2023-05-03T06:46:38.380Z,4.4
2023-05-03T06:56:31.048Z,4.7
2023-05-03T07:01:37.474Z,4.9
2023-05-03T07:06:55.198Z,5.1
2023-05-03T07:11:50.450Z,5.3
2023-05-03T07:16:58.887Z,5.5
2023-05-03T07:22:05.310Z,5.8
2023-05-03T07:27:31.772Z,6.0
2023-05-03T07:32:18.166Z,6.5
2023-05-03T07:42:30.931Z,8.1
2023-05-03T07:47:37.435Z,9.1
2023-05-03T07:52:43.841Z,10.1
2023-05-03T07:57:50.356Z,11.0
2023-05-03T08:02:56.941Z,11.9
2023-05-03T08:08:03.100Z,12.7
2023-05-03T08:13:09.528Z,13.7
2023-05-03T08:18:15.893Z,14.5
2023-05-03T08:23:23.331Z,15.3
2023-05-03T08:28:31.261Z,16.1
2023-05-03T08:33:27.194Z,16.9
2023-05-03T08:38:43.703Z,17.6
2023-05-03T08:44:14.181Z,18.3
2023-05-03T08:49:20.569Z,19.0
2023-05-03T08:54:02.906Z,19.6
2023-05-03T08:59:09.288Z,20.2
2023-05-03T09:04:15.824Z,20.7
2023-05-03T09:09:22.022Z,21.3
2023-05-03T09:14:32.414Z,21.8
2023-05-03T09:19:24.785Z,22.1
2023-05-03T09:24:41.157Z,22.7
2023-05-03T09:34:54.073Z,23.5
2023-05-03T09:40:01.820Z,23.8
2023-05-03T09:45:11.941Z,24.1
2023-05-03T09:50:14.345Z,24.4
2023-05-03T09:55:20.708Z,24.9
2023-05-03T10:00:27.120Z,25.2
2023-05-03T10:05:57.556Z,25.5
2023-05-03T10:10:59.908Z,25.8
2023-05-03T10:15:46.288Z,26.1
2023-05-03T10:20:52.753Z,26.3
2023-05-03T10:25:59.154Z,26.5
2023-05-03T10:31:05.564Z,26.7
2023-05-03T10:36:11.910Z,26.9
2023-05-03T10:41:18.323Z,27.1
2023-05-03T10:46:24.725Z,27.3
2023-05-03T10:51:55.118Z,27.5
2023-05-03T10:56:37.506Z,27.8
2023-05-03T11:01:43.879Z,28.1
2023-05-03T11:06:50.420Z,28.2
2023-05-03T11:11:46.723Z,28.4
2023-05-03T11:17:03.176Z,28.5
2023-05-03T11:22:09.553Z,28.7
2023-05-03T11:27:36.012Z,28.8
2023-05-03T11:32:26.361Z,28.8
2023-05-03T11:37:28.852Z,28.9
2023-05-03T11:42:35.316Z,28.9
2023-05-03T11:47:41.800Z,29.0
2023-05-03T11:52:48.272Z,29.0
2023-05-03T11:57:56.076Z,28.9
2023-05-03T12:03:02.666Z,28.7
2023-05-03T12:08:09.753Z,28.6
2023-05-03T12:13:17.109Z,28.4
2023-05-03T12:18:12.044Z,28.2
2023-05-03T12:23:28.266Z,28.1
2023-05-03T12:28:34.500Z,27.9
2023-05-03T12:33:43.445Z,27.7
2023-05-03T12:38:49.695Z,27.6
2023-05-03T12:43:43.857Z,27.4
2023-05-03T12:49:00.718Z,27.3
2023-05-03T12:54:10.254Z,26.4
2023-05-03T13:04:36.914Z,23.4
2023-05-03T13:15:02.989Z,22.5
2023-05-03T13:19:45.654Z,22.4
2023-05-03T13:24:52.025Z,22.0
2023-05-03T13:29:58.371Z,21.9
2023-05-03T13:35:05.057Z,21.8
2023-05-03T13:40:11.133Z,21.4
2023-05-03T13:45:17.497Z,21.3
2023-05-03T13:50:27.518Z,21.3
2023-05-03T13:55:33.861Z,21.3
2023-05-03T14:00:40.259Z,21.2
2023-05-03T14:05:46.734Z,21.0
2023-05-03T14:10:53.566Z,21.4
2023-05-03T14:21:26.587Z,22.5
2023-05-03T14:26:33.010Z,22.8
2023-05-03T14:31:19.378Z,23.0
2023-05-03T14:36:25.719Z,23.1
2023-05-03T14:41:56.725Z,23.1
2023-05-03T14:46:37.501Z,23.1
2023-05-03T14:51:46.418Z,23.1
2023-05-03T14:56:52.796Z,23.0
2023-05-03T15:01:59.224Z,22.8
2023-05-03T15:07:05.621Z,22.7
2023-05-03T15:12:13.587Z,22.5
2023-05-03T15:18:04.101Z,22.2
2023-05-03T15:22:26.473Z,22.1
2023-05-03T15:27:32.861Z,21.9
2023-05-03T15:32:39.272Z,21.7
2023-05-03T15:37:45.638Z,21.5
2023-05-03T15:52:54.889Z,21.0
2023-05-03T15:58:11.261Z,20.8
2023-05-03T16:03:37.687Z,20.7
2023-05-03T16:13:30.443Z,20.4
2023-05-03T16:18:36.801Z,20.2
2023-05-03T16:28:50.212Z,19.9
2023-05-03T16:33:56.016Z,19.8
2023-05-03T16:39:22.458Z,19.6
2023-05-03T16:44:08.824Z,19.5
2023-05-03T16:49:15.172Z,19.4
2023-05-03T16:54:59.661Z,19.3
2023-05-03T16:59:27.934Z,19.3
2023-05-03T17:04:34.374Z,19.2
2023-05-03T17:09:40.758Z,19.2
2023-05-03T17:14:47.293Z,19.1
2023-05-03T17:25:04.050Z,19.0
2023-05-03T17:30:08.077Z,19.0
2023-05-03T17:35:14.415Z,18.9
2023-05-03T17:40:40.818Z,18.9
2023-05-03T17:45:27.170Z,18.8
2023-05-03T17:50:37.147Z,18.6
2023-05-03T17:56:07.573Z,18.5
2023-05-03T18:01:10.646Z,18.3
2023-05-03T18:06:20.925Z,18.2
2023-05-03T18:11:02.293Z,18.0
2023-05-03T18:16:29.790Z,17.9
2023-05-03T18:21:16.099Z,17.7
2023-05-03T18:31:28.912Z,17.3
2023-05-03T18:41:31.763Z,17.0
2023-05-03T18:46:48.274Z,16.7
2023-05-03T18:51:54.597Z,16.6
2023-05-03T18:57:01.957Z,16.3
2023-05-03T19:01:57.354Z,16.1
2023-05-03T19:07:13.847Z,15.9
2023-05-03T19:13:14.396Z,15.7
2023-05-03T19:17:26.652Z,15.5
2023-05-03T19:22:33.141Z,15.3
2023-05-03T19:27:39.438Z,15.1
2023-05-03T19:32:45.835Z,14.9
2023-05-03T19:38:31.297Z,14.7
2023-05-03T19:42:47.552Z,14.5
2023-05-03T19:48:05.055Z,14.3
2023-05-03T19:53:11.601Z,14.1
2023-05-03T19:58:18.015Z,13.9
2023-05-03T20:03:25.587Z,13.7
2023-05-03T20:08:21.853Z,13.5
2023-05-03T20:13:38.281Z,13.4
2023-05-03T20:18:44.606Z,13.2
2023-05-03T20:24:15.031Z,13.0
2023-05-03T20:28:57.405Z,12.9
2023-05-03T20:34:03.798Z,12.7
2023-05-03T20:39:13.953Z,12.6
2023-05-03T20:44:20.559Z,12.4
2023-05-03T20:49:26.811Z,12.3
2023-05-03T20:54:33.250Z,12.1
2023-05-03T21:00:04.081Z,12.0
2023-05-03T21:04:45.971Z,11.9
2023-05-03T21:09:52.376Z,11.8
2023-05-03T21:14:48.803Z,11.7
2023-05-03T21:20:05.425Z,11.5
2023-05-03T21:35:24.357Z,11.2
2023-05-03T21:40:30.716Z,11.1
2023-05-03T21:45:37.107Z,11.0
2023-05-03T21:50:43.832Z,10.9
2023-05-03T21:55:40.100Z,10.8
2023-05-03T22:01:52.748Z,10.7
2023-05-03T22:05:53.053Z,10.6
2023-05-03T22:10:59.429Z,10.5
2023-05-03T22:26:33.498Z,10.3
2023-05-03T22:31:41.100Z,10.3
2023-05-03T22:36:47.655Z,10.3
2023-05-03T22:41:54.059Z,10.2
2023-05-03T22:47:00.416Z,10.0
2023-05-03T22:52:06.787Z,9.9
2023-05-03T22:57:03.167Z,9.8
2023-05-03T23:12:32.960Z,9.5
2023-05-03T23:17:40.413Z,9.4
2023-05-03T23:22:36.740Z,9.3
2023-05-03T23:27:53.158Z,9.2
2023-05-03T23:32:59.564Z,9.1
2023-05-03T23:38:05.924Z,9.1
2023-05-03T23:43:12.273Z,9.0
2023-05-03T23:48:42.828Z,8.9
2023-05-03T23:53:25.156Z,8.8
2023-05-03T23:59:07.254Z,8.8
